Madisonville, LA

12:53 PM CDT on September 30, 2014 (GMT -0500)
Hammond Municipal | Change Station
CLOSE
Current Station
Airport
Location: Hammond,
Elevation: 43 ft
Nearby Weather Stations

Elev 43 ft 30.52 °N, 90.42 °W | Updated 18 minutes ago

Mostly Cloudy
Mostly Cloudy
90 °F
Feels Like 92 °F
N
5
Wind Variable Wind from East

Today
High -- | Low -- °F
--% Chance of Precip.
Yesterday
High -- | Low -- °F
Precip. -- in
6:53 AM 6:47 PM
Waxing Crescent, 38% visible
Pressure 29.91 in
Visibility 10.0 miles
Clouds Scattered Clouds 3400 ft
Scattered Clouds 4300 ft
Scattered Clouds 5000 ft
Heat Index 92 °F
Dew Point 66 °F
Humidity 46%
Rainfall 0.00 in
Snow Depth Not available.
UV 8 out of 12
Pollen 7.30 out of 12
Air Quality Not available.
Flu Activity Not available.
METAR KHDC 301735Z AUTO 09004KT 10SM SCT034 SCT043 SCT050 32/19 A2991 RMK AO2

More Conditions Fewer Conditions

Pressure 29.91 in
Visibility 10.0 miles
Clouds Scattered Clouds 3400 ft
Scattered Clouds 4300 ft
Scattered Clouds 5000 ft
Heat Index 92 °F
Dew Point 66 °F
Humidity 46%
Rainfall 0.00 in
Snow Depth Not available.
UV 8 out of 12
Pollen 7.30 out of 12
Air Quality Not available.
Flu Activity Not available.
METAR KHDC 301735Z AUTO 09004KT 10SM SCT034 SCT043 SCT050 32/19 A2991 RMK AO2

More Conditions Fewer Conditions

10-Day Weather Forecast

Almanac

Astronomy

Sep. 30, 2014 Rise Set
Actual Time 6:53 AM CDT 6:47 PM CDT
Civil Twilight 6:29 AM CDT 7:11 PM CDT
Nautical Twilight 6:01 AM CDT 7:39 PM CDT
Astronomical Twilight 5:33 AM CDT 8:06 PM CDT
Moon 12:43 PM CDT 11:35 PM CDT
Length of Visible Light 12h 41m
Length of Day
11h 53m
Tomorrow will be 1m 50s shorter.
Waxing Crescent, 38% of the Moon is Illuminated
Today
Waxing Crescent
Oct 1
First Quarter
Oct 8
Full
Oct 15
Last Quarter
Oct 23
New

Today's Extremes

State Highs State Lows

Community

WunderPhotos

Upload Photos

1,757,693 photos uploaded!

Nearby

Snow Depth

Station Depth Elevation
No new snow has been reported.

Earthquake Activity

City Distance Mag. Time & Date
No recent earthquake activity has been reported nearby.
Minimum magnitude displayed is 2.5.

Coastal Water Temperatures

Place Temperature
New Canal, LA 77.0 °F
Shell Beach, LA 75.0 °F
Bayou Gauche, LA 80.1 °F

Nearby Weather Stations